Time;durP1;ratioP1;P1;durP2;ratioP2;P2;SDS_P1;SDS_P2;PMS_P1;PMS_P2;Temp;Humidity;BMP_temperature;BMP_pressure;BME280_temperature;BME280_humidity;BME280_pressure;Samples;Min_cycle;Max_cycle;Signal;HPM_P1;HPM_P2
2021/04/16 00:01:06;;;;;;;1.63;0.80;;;5.60;69.60;;;;;;5031773;28;20025;-80
2021/04/16 00:03:31;;;;;;;1.98;0.90;;;5.60;69.50;;;;;;5031701;28;20057;-79
2021/04/16 00:05:57;;;;;;;2.00;0.70;;;5.60;69.30;;;;;;5031601;28;20037;-80
2021/04/16 00:08:34;;;;;;;1.13;0.68;;;5.60;69.40;;;;;;5033835;28;20038;-80
2021/04/16 00:11:14;;;;;;;1.10;0.60;;;5.60;69.50;;;;;;5036967;28;20465;-80
2021/04/16 00:13:40;;;;;;;0.90;0.60;;;5.40;70.10;;;;;;5035620;28;20389;-80
2021/04/16 00:16:08;;;;;;;0.93;0.70;;;5.40;70.60;;;;;;5035511;28;20073;-80
2021/04/16 00:18:34;;;;;;;1.15;0.70;;;5.30;71.20;;;;;;5036777;28;20436;-80
2021/04/16 00:20:59;;;;;;;0.98;0.65;;;5.20;71.60;;;;;;5036754;28;20485;-80
2021/04/16 00:23:26;;;;;;;2.10;0.80;;;5.20;71.70;;;;;;5035327;28;20063;-79
2021/04/16 00:25:52;;;;;;;2.47;0.82;;;5.20;72.00;;;;;;5035356;28;20025;-80
2021/04/16 00:28:18;;;;;;;1.40;0.70;;;5.20;72.00;;;;;;5036597;28;20350;-80
2021/04/16 00:30:58;;;;;;;1.63;0.70;;;5.20;71.90;;;;;;5036560;28;20029;-79
2021/04/16 00:33:24;;;;;;;1.55;0.70;;;5.30;71.70;;;;;;5035259;28;20036;-80
2021/04/16 00:35:50;;;;;;;1.63;0.70;;;5.30;71.60;;;;;;5035222;28;20017;-80
2021/04/16 00:38:17;;;;;;;1.45;0.70;;;5.30;71.50;;;;;;5036497;28;20033;-80
2021/04/16 00:40:46;;;;;;;2.35;1.00;;;5.20;71.50;;;;;;5034954;28;20075;-80
2021/04/16 00:43:14;;;;;;;2.17;0.88;;;5.20;71.90;;;;;;5036277;28;20057;-80
2021/04/16 00:45:40;;;;;;;1.80;0.93;;;5.10;72.50;;;;;;5036305;28;20037;-80
2021/04/16 00:48:12;;;;;;;1.25;0.70;;;5.10;72.90;;;;;;5034896;28;20036;-80
2021/04/16 00:50:49;;;;;;;1.90;1.02;;;5.10;73.20;;;;;;5036229;28;20022;-80
2021/04/16 00:53:17;;;;;;;1.70;0.70;;;5.00;73.40;;;;;;5036200;28;20021;-80
2021/04/16 00:55:44;;;;;;;1.85;0.80;;;5.00;73.60;;;;;;5034689;28;20041;-80
2021/04/16 00:58:10;;;;;;;1.40;0.88;;;4.90;73.70;;;;;;5034835;28;20026;-80
2021/04/16 01:00:37;;;;;;;1.30;0.80;;;4.90;73.90;;;;;;5034686;28;20473;-80
2021/04/16 01:03:04;;;;;;;1.25;0.75;;;4.90;74.20;;;;;;5034628;28;20057;-80
2021/04/16 01:05:29;;;;;;;2.25;0.93;;;4.80;74.20;;;;;;5034562;28;20029;-80
2021/04/16 01:07:55;;;;;;;1.55;0.90;;;4.90;74.30;;;;;;5035873;28;20045;-79
2021/04/16 01:10:21;;;;;;;1.50;0.82;;;4.80;74.40;;;;;;5034352;28;20026;-80
2021/04/16 01:12:47;;;;;;;1.45;0.80;;;4.70;74.70;;;;;;5034495;28;20049;-79
2021/04/16 01:15:30;;;;;;;1.33;0.90;;;4.70;75.90;;;;;;5035607;28;20049;-80
2021/04/16 01:18:04;;;;;;;1.50;0.73;;;4.60;75.60;;;;;;5034586;28;20079;-80
2021/04/16 01:20:36;;;;;;;2.03;0.85;;;4.60;76.00;;;;;;5033161;28;20025;-80
2021/04/16 01:23:39;;;;;;;1.30;0.65;;;4.60;76.10;;;;;;5034460;28;20026;-80
2021/04/16 01:26:07;;;;;;;1.70;0.82;;;4.60;75.90;;;;;;5034041;28;20543;-79
2021/04/16 01:28:32;;;;;;;1.42;0.93;;;4.50;76.10;;;;;;5034205;28;20029;-79
2021/04/16 01:31:03;;;;;;;1.88;1.13;;;4.50;76.10;;;;;;5034200;28;20029;-80
2021/04/16 01:33:32;;;;;;;1.98;0.90;;;4.60;76.10;;;;;;5035429;28;20021;-80
2021/04/16 01:35:58;;;;;;;1.90;0.80;;;4.60;76.00;;;;;;5034087;28;20025;-79
2021/04/16 01:38:24;;;;;;;2.75;0.98;;;4.50;76.20;;;;;;5035426;28;20037;-79
2021/04/16 01:40:50;;;;;;;1.60;0.80;;;4.50;76.50;;;;;;5033802;28;20057;-80
2021/04/16 01:43:21;;;;;;;3.30;1.13;;;4.50;76.90;;;;;;5035143;28;20543;-80
2021/04/16 01:45:47;;;;;;;1.35;0.73;;;4.30;77.20;;;;;;5033970;28;20049;-80
2021/04/16 01:48:12;;;;;;;1.67;0.90;;;4.30;77.60;;;;;;5035066;28;20037;-80
2021/04/16 01:50:38;;;;;;;1.75;0.85;;;4.30;77.80;;;;;;5033747;28;20079;-80
2021/04/16 01:53:04;;;;;;;2.08;0.80;;;4.30;78.10;;;;;;5035146;28;20041;-79
2021/04/16 01:55:30;;;;;;;2.95;0.75;;;4.20;78.90;;;;;;5033579;28;20021;-80
2021/04/16 01:57:56;;;;;;;1.63;0.98;;;4.20;78.60;;;;;;5033809;28;20022;-80
2021/04/16 02:00:35;;;;;;;2.30;1.30;;;4.20;78.80;;;;;;5033628;28;20559;-80
2021/04/16 02:03:01;;;;;;;1.87;0.90;;;4.20;78.90;;;;;;5034970;28;20535;-79
2021/04/16 02:05:27;;;;;;;1.80;0.95;;;4.20;78.70;;;;;;5033474;28;20025;-80
2021/04/16 02:07:55;;;;;;;2.40;1.27;;;4.20;78.80;;;;;;5033516;28;20072;-80
2021/04/16 02:10:22;;;;;;;1.83;1.08;;;4.20;79.00;;;;;;5033503;28;20131;-80
2021/04/16 02:12:48;;;;;;;1.52;0.93;;;4.20;79.40;;;;;;5034605;28;20148;-80
2021/04/16 02:15:14;;;;;;;1.83;0.90;;;4.10;79.70;;;;;;5033123;28;20060;-80
2021/04/16 02:17:39;;;;;;;2.63;0.85;;;4.10;80.00;;;;;;5033360;28;20056;-80
2021/04/16 02:20:15;;;;;;;1.92;1.33;;;4.00;80.20;;;;;;5033198;28;20021;-79
2021/04/16 02:22:40;;;;;;;1.90;1.25;;;4.10;80.30;;;;;;5033322;28;20026;-80
2021/04/16 02:25:07;;;;;;;2.00;1.15;;;4.00;80.50;;;;;;5033168;28;20029;-79
2021/04/16 02:27:33;;;;;;;1.85;0.98;;;4.00;80.80;;;;;;5032869;28;20025;-80
2021/04/16 02:29:59;;;;;;;2.33;1.20;;;4.00;81.00;;;;;;5032564;28;20025;-80
2021/04/16 02:32:25;;;;;;;2.20;0.90;;;4.00;81.20;;;;;;5033103;28;20112;-80
2021/04/16 02:34:51;;;;;;;1.77;1.02;;;3.90;81.20;;;;;;5034279;28;20044;-80
2021/04/16 02:37:21;;;;;;;2.10;0.93;;;3.90;81.50;;;;;;5032975;28;20036;-80
2021/04/16 02:39:48;;;;;;;1.77;1.30;;;3.90;81.60;;;;;;5032913;28;20033;-80
2021/04/16 02:42:13;;;;;;;1.80;1.00;;;3.90;81.80;;;;;;5032640;28;20037;-80
2021/04/16 02:44:39;;;;;;;1.70;0.85;;;3.90;81.80;;;;;;5032564;28;20053;-79
2021/04/16 02:47:06;;;;;;;1.88;0.82;;;3.90;81.90;;;;;;5032916;28;20053;-80
2021/04/16 02:49:33;;;;;;;2.25;1.00;;;3.90;82.00;;;;;;5033958;28;20473;-80
2021/04/16 02:51:58;;;;;;;2.15;0.98;;;3.90;82.10;;;;;;5032663;28;20470;-80
2021/04/16 02:54:24;;;;;;;1.88;0.82;;;3.80;82.20;;;;;;5033885;28;20025;-80
2021/04/16 02:56:50;;;;;;;2.67;0.80;;;3.80;82.30;;;;;;5032410;28;20109;-80
2021/04/16 02:59:19;;;;;;;2.30;1.17;;;3.80;82.50;;;;;;5032515;28;20517;-80
2021/04/16 03:01:44;;;;;;;1.42;1.00;;;3.80;82.40;;;;;;5033832;28;20496;-79
2021/04/16 03:04:10;;;;;;;3.35;1.10;;;3.80;82.40;;;;;;5033703;28;20026;-80
2021/04/16 03:06:36;;;;;;;2.20;1.27;;;3.80;82.40;;;;;;5032387;28;20026;-80
2021/04/16 03:09:03;;;;;;;2.30;1.00;;;3.80;82.40;;;;;;5032342;28;20112;-79
2021/04/16 03:11:29;;;;;;;2.88;1.23;;;3.70;82.50;;;;;;5032294;28;20022;-79
2021/04/16 03:13:55;;;;;;;2.40;1.23;;;3.70;82.50;;;;;;5032237;28;20079;-79
2021/04/16 03:16:24;;;;;;;2.20;1.23;;;3.60;82.80;;;;;;5033351;28;20053;-80
2021/04/16 03:18:50;;;;;;;2.90;1.30;;;3.60;83.40;;;;;;5033610;28;20025;-79
2021/04/16 03:21:16;;;;;;;3.20;1.15;;;3.50;83.70;;;;;;5032151;28;20035;-79
2021/04/16 03:23:41;;;;;;;3.20;1.23;;;3.50;84.10;;;;;;5032206;28;20025;-80
2021/04/16 03:26:07;;;;;;;3.13;1.50;;;3.50;84.20;;;;;;5031995;28;20026;-80
2021/04/16 03:28:32;;;;;;;2.03;1.27;;;3.50;84.40;;;;;;5031913;28;20021;-80
2021/04/16 03:30:58;;;;;;;2.75;1.30;;;3.50;84.40;;;;;;5031948;28;20017;-79
2021/04/16 03:33:24;;;;;;;3.40;1.88;;;3.50;84.30;;;;;;5033332;28;20381;-80
2021/04/16 03:35:50;;;;;;;3.33;1.58;;;3.50;84.40;;;;;;5033223;28;20037;-79
2021/04/16 03:38:15;;;;;;;2.78;1.40;;;3.40;84.80;;;;;;5031984;28;20120;-80
2021/04/16 03:40:41;;;;;;;3.38;1.50;;;3.40;85.00;;;;;;5033091;28;20084;-80
2021/04/16 03:43:07;;;;;;;2.67;1.40;;;3.40;85.20;;;;;;5031102;28;20536;-79
2021/04/16 03:45:33;;;;;;;2.03;1.30;;;3.40;85.30;;;;;;5031773;28;20497;-80
2021/04/16 03:47:58;;;;;;;2.55;1.45;;;3.40;85.30;;;;;;5031778;28;20113;-80
2021/04/16 03:50:30;;;;;;;2.58;1.55;;;3.40;85.30;;;;;;5031790;28;20386;-79
2021/04/16 03:52:56;;;;;;;3.13;1.50;;;3.40;85.60;;;;;;5031935;28;20021;-80
2021/04/16 03:55:26;;;;;;;3.50;1.42;;;3.40;85.70;;;;;;5033154;28;20477;-80
2021/04/16 03:57:52;;;;;;;4.78;1.50;;;3.40;85.80;;;;;;5031839;28;20107;-80
2021/04/16 04:00:26;;;;;;;3.25;1.70;;;3.30;85.90;;;;;;5031547;28;20029;-80
2021/04/16 04:02:52;;;;;;;2.92;1.33;;;3.30;86.00;;;;;;5031456;28;20037;-79
2021/04/16 04:05:19;;;;;;;2.90;1.40;;;3.20;86.20;;;;;;5030753;28;20391;-79
2021/04/16 04:07:45;;;;;;;2.38;1.23;;;3.30;86.30;;;;;;5032507;28;20027;-80
2021/04/16 04:10:11;;;;;;;3.25;1.35;;;3.30;86.40;;;;;;5032839;28;20451;-80
2021/04/16 04:12:36;;;;;;;3.88;2.25;;;3.30;86.60;;;;;;5031714;28;20025;-80
2021/04/16 04:15:03;;;;;;;3.55;1.33;;;3.30;86.80;;;;;;5031409;28;20755;-80
2021/04/16 04:17:31;;;;;;;2.15;1.23;;;3.20;86.80;;;;;;5031530;28;20470;-80
2021/04/16 04:19:57;;;;;;;3.50;1.83;;;3.20;87.30;;;;;;5032850;28;20037;-80
2021/04/16 04:22:23;;;;;;;4.95;2.05;;;3.10;87.70;;;;;;5031497;28;20025;-80
2021/04/16 04:24:49;;;;;;;5.15;1.40;;;3.10;87.90;;;;;;5032843;28;20036;-79
2021/04/16 04:27:15;;;;;;;3.60;1.40;;;3.10;88.10;;;;;;5031486;28;20030;-80
2021/04/16 04:29:40;;;;;;;3.63;1.45;;;3.00;88.20;;;;;;5031223;28;20078;-80
2021/04/16 04:32:07;;;;;;;2.00;1.23;;;3.00;88.40;;;;;;5031463;28;20053;-80
2021/04/16 04:34:33;;;;;;;2.55;1.20;;;3.00;88.40;;;;;;5032771;28;20096;-80
2021/04/16 04:37:00;;;;;;;3.78;1.40;;;3.10;88.50;;;;;;5032538;28;20049;-79
2021/04/16 04:39:31;;;;;;;4.80;1.60;;;3.10;88.40;;;;;;5032710;28;20036;-79
2021/04/16 04:41:57;;;;;;;2.03;1.20;;;3.10;88.40;;;;;;5031322;28;20531;-80
2021/04/16 04:44:23;;;;;;;3.22;1.58;;;3.10;88.60;;;;;;5031111;28;20085;-80
2021/04/16 04:46:49;;;;;;;2.90;1.63;;;3.10;88.70;;;;;;5031305;28;20021;-80
2021/04/16 04:49:19;;;;;;;2.38;1.40;;;3.10;88.60;;;;;;5032549;28;20493;-80
2021/04/16 04:51:46;;;;;;;2.22;1.30;;;3.20;88.70;;;;;;5031339;28;20032;-80
2021/04/16 04:54:12;;;;;;;3.45;1.65;;;3.20;88.70;;;;;;5034454;28;20523;-80
2021/04/16 04:56:38;;;;;;;3.13;1.77;;;3.20;88.70;;;;;;5034457;28;20030;-80
2021/04/16 04:59:05;;;;;;;2.92;1.27;;;3.20;88.80;;;;;;5034747;28;20121;-80
2021/04/16 05:01:30;;;;;;;2.38;1.55;;;3.10;88.80;;;;;;5034306;28;20033;-80
2021/04/16 05:03:56;;;;;;;3.40;1.98;;;3.10;89.00;;;;;;5036001;28;20627;-80
2021/04/16 05:06:21;;;;;;;3.22;1.52;;;3.10;89.40;;;;;;5035576;28;20385;-79
2021/04/16 05:08:47;;;;;;;4.55;1.70;;;3.10;89.60;;;;;;5034623;28;20022;-80
2021/04/16 05:11:13;;;;;;;2.58;1.50;;;3.00;90.00;;;;;;5034544;28;20121;-80
2021/04/16 05:13:39;;;;;;;6.03;2.05;;;2.90;90.10;;;;;;5034562;28;20106;-80
2021/04/16 05:16:07;;;;;;;3.22;2.33;;;2.90;90.30;;;;;;5034227;28;20026;-80
2021/04/16 05:18:33;;;;;;;3.58;1.80;;;2.90;90.40;;;;;;5035743;28;20022;-80
2021/04/16 05:20:59;;;;;;;2.95;1.50;;;3.00;90.50;;;;;;5034410;28;20572;-80
2021/04/16 05:23:24;;;;;;;5.40;2.28;;;2.90;90.50;;;;;;5035663;28;20061;-80
2021/04/16 05:25:50;;;;;;;3.10;1.55;;;3.00;90.60;;;;;;5034303;28;20444;-80
2021/04/16 05:28:16;;;;;;;4.15;2.10;;;3.00;90.70;;;;;;5035441;28;20052;-80
2021/04/16 05:30:41;;;;;;;4.50;1.73;;;3.00;90.80;;;;;;5035355;28;20021;-79
2021/04/16 05:33:07;;;;;;;2.60;1.38;;;3.00;90.80;;;;;;5035521;28;20392;-77
2021/04/16 05:35:32;;;;;;;2.65;1.67;;;3.10;90.80;;;;;;5035610;28;20389;-78
2021/04/16 05:37:58;;;;;;;3.42;2.00;;;3.10;90.90;;;;;;5034234;28;20417;-77
2021/04/16 05:40:27;;;;;;;4.60;2.70;;;3.10;91.00;;;;;;5034130;28;20476;-78
2021/04/16 05:42:54;;;;;;;3.53;2.00;;;3.10;91.30;;;;;;5034046;28;20022;-78
2021/04/16 05:45:21;;;;;;;3.58;1.95;;;3.10;91.30;;;;;;5034986;28;20053;-78
2021/04/16 05:47:47;;;;;;;6.88;2.33;;;3.10;91.30;;;;;;5033715;28;20075;-78
2021/04/16 05:50:14;;;;;;;3.42;1.80;;;3.10;91.30;;;;;;5033842;28;20116;-78
2021/04/16 05:52:40;;;;;;;7.55;2.38;;;3.10;91.40;;;;;;5033941;28;20021;-78
2021/04/16 05:55:06;;;;;;;4.43;2.10;;;3.20;91.50;;;;;;5033904;28;20053;-78
2021/04/16 05:57:32;;;;;;;4.72;2.10;;;3.20;91.60;;;;;;5035001;28;20033;-78
2021/04/16 05:59:57;;;;;;;4.82;2.30;;;3.20;91.60;;;;;;5034979;28;20029;-78
2021/04/16 06:02:35;;;;;;;6.15;2.58;;;3.30;91.70;;;;;;5033437;28;20455;-78
2021/04/16 06:05:02;;;;;;;4.70;2.17;;;3.30;91.80;;;;;;5032370;28;20081;-79
2021/04/16 06:07:30;;;;;;;3.30;1.88;;;3.30;91.70;;;;;;5033339;28;20025;-80
2021/04/16 06:09:56;;;;;;;3.33;2.00;;;3.40;91.70;;;;;;5032979;28;20025;-77
2021/04/16 06:12:22;;;;;;;2.92;1.65;;;3.40;91.80;;;;;;5034865;28;20100;-78
2021/04/16 06:14:48;;;;;;;3.28;2.10;;;3.40;91.90;;;;;;5034742;28;20084;-78
2021/04/16 06:17:15;;;;;;;3.83;2.10;;;3.40;92.00;;;;;;5013398;28;20034;-78
2021/04/16 06:19:42;;;;;;;7.47;2.10;;;3.40;92.10;;;;;;5022251;28;20063;-79
2021/04/16 06:22:08;;;;;;;4.68;2.83;;;3.40;92.30;;;;;;5034151;28;20033;-78
2021/04/16 06:24:33;;;;;;;5.10;2.95;;;3.40;92.50;;;;;;5034574;28;20030;-78
2021/04/16 06:26:59;;;;;;;5.45;2.85;;;3.40;92.70;;;;;;5033271;28;20030;-78
2021/04/16 06:29:25;;;;;;;5.40;3.47;;;3.50;92.80;;;;;;5033050;28;20393;-78
2021/04/16 06:31:51;;;;;;;5.43;2.45;;;3.40;92.80;;;;;;5034220;28;20098;-78
2021/04/16 06:34:17;;;;;;;4.70;2.80;;;3.50;93.00;;;;;;5033124;28;20026;-78
2021/04/16 06:36:43;;;;;;;3.80;2.63;;;3.50;93.00;;;;;;5032816;28;20389;-78
2021/04/16 06:39:08;;;;;;;5.90;2.55;;;3.60;93.00;;;;;;5034127;28;20044;-78
2021/04/16 06:41:34;;;;;;;3.53;1.90;;;3.70;93.00;;;;;;5032876;28;20478;-77
2021/04/16 06:44:08;;;;;;;3.80;2.17;;;3.80;92.90;;;;;;5032674;28;20045;-80
2021/04/16 06:46:38;;;;;;;3.92;1.90;;;3.90;92.90;;;;;;5034151;28;20030;-78
2021/04/16 06:49:07;;;;;;;3.67;2.15;;;4.10;92.80;;;;;;5033297;28;20037;-79
2021/04/16 06:51:38;;;;;;;5.82;2.15;;;4.20;92.80;;;;;;5029618;28;20128;-78
2021/04/16 06:54:10;;;;;;;3.30;2.30;;;4.40;92.80;;;;;;5043542;28;20126;-79
2021/04/16 06:56:39;;;;;;;5.82;2.55;;;4.50;92.80;;;;;;5029928;28;20021;-79
2021/04/16 06:59:24;;;;;;;8.07;1.95;;;4.60;92.70;;;;;;5049215;28;20029;-78
2021/04/16 07:02:03;;;;;;;7.55;2.50;;;4.70;92.50;;;;;;5040070;28;20527;-80
2021/04/16 07:04:37;;;;;;;5.20;2.17;;;4.90;92.70;;;;;;5031081;28;20014;-80
2021/04/16 07:07:30;;;;;;;3.67;1.98;;;5.00;92.70;;;;;;5033022;28;20071;-80
2021/04/16 07:10:11;;;;;;;3.90;2.28;;;5.20;92.60;;;;;;5026058;28;20038;-79
2021/04/16 07:12:36;;;;;;;4.70;2.55;;;5.30;92.70;;;;;;5032717;28;20029;-79
2021/04/16 07:15:08;;;;;;;7.03;2.60;;;5.40;92.70;;;;;;5032527;28;20600;-79
2021/04/16 07:17:45;;;;;;;4.55;2.55;;;5.50;92.60;;;;;;5033126;28;20033;-79
2021/04/16 07:20:13;;;;;;;4.95;2.50;;;5.60;92.60;;;;;;5032264;28;20113;-80
2021/04/16 07:22:51;;;;;;;8.05;4.13;;;5.50;92.60;;;;;;5033544;28;20028;-78
2021/04/16 07:25:34;;;;;;;4.72;3.15;;;5.60;92.60;;;;;;5024569;28;20481;-79
2021/04/16 07:28:13;;;;;;;5.68;3.20;;;5.60;92.70;;;;;;5032084;28;20113;-79
2021/04/16 07:30:47;;;;;;;8.60;2.80;;;5.60;92.90;;;;;;5031465;28;20068;-79
2021/04/16 07:33:31;;;;;;;6.03;2.88;;;5.60;92.90;;;;;;5030957;28;20045;-79
2021/04/16 07:36:21;;;;;;;4.70;3.38;;;5.60;92.80;;;;;;5031972;28;20023;-79
2021/04/16 07:39:09;;;;;;;6.15;3.22;;;5.70;93.00;;;;;;5031539;28;20029;-79
2021/04/16 07:42:00;;;;;;;7.13;3.10;;;5.90;93.00;;;;;;5033200;28;20025;-79
2021/04/16 07:44:34;;;;;;;6.22;3.53;;;6.00;93.00;;;;;;5031043;28;20033;-79
2021/04/16 07:47:02;;;;;;;3.92;2.58;;;6.20;93.10;;;;;;5029800;28;20022;-79
2021/04/16 07:49:36;;;;;;;3.85;2.50;;;6.30;92.70;;;;;;5029967;28;20121;-79
2021/04/16 07:52:30;;;;;;;7.00;2.95;;;6.50;92.60;;;;;;5032435;28;20383;-79
2021/04/16 07:55:14;;;;;;;4.10;2.83;;;6.60;92.40;;;;;;5047997;28;20079;-79
2021/04/16 07:57:50;;;;;;;5.65;3.00;;;6.60;92.30;;;;;;5031725;28;20022;-79
2021/04/16 08:00:22;;;;;;;8.45;3.70;;;6.60;92.30;;;;;;5031543;28;20030;-79
2021/04/16 08:02:50;;;;;;;5.10;2.85;;;6.60;92.40;;;;;;5031528;28;20024;-78
2021/04/16 08:05:25;;;;;;;6.18;2.90;;;6.60;92.30;;;;;;5032682;28;20101;-77
2021/04/16 08:08:17;;;;;;;7.65;3.67;;;6.70;92.30;;;;;;5030939;28;20036;-78
2021/04/16 08:10:55;;;;;;;4.35;2.50;;;6.70;92.20;;;;;;5032458;28;20470;-77
2021/04/16 08:13:28;;;;;;;5.75;2.75;;;6.80;92.20;;;;;;5031550;28;20026;-79
2021/04/16 08:16:09;;;;;;;4.95;2.85;;;6.80;92.10;;;;;;5032716;28;20029;-78
2021/04/16 08:18:35;;;;;;;4.80;2.35;;;6.90;92.10;;;;;;5030804;28;20022;-78
2021/04/16 08:21:13;;;;;;;5.97;3.67;;;7.00;92.10;;;;;;5030899;28;20389;-78
2021/04/16 08:23:57;;;;;;;3.92;2.40;;;7.10;92.00;;;;;;5032196;28;20092;-78
2021/04/16 08:26:26;;;;;;;4.85;3.15;;;7.20;91.90;;;;;;5031522;28;20017;-78
2021/04/16 08:28:58;;;;;;;6.47;3.22;;;7.30;91.70;;;;;;5034174;28;20040;-78
2021/04/16 08:31:29;;;;;;;4.72;2.53;;;7.50;91.30;;;;;;5035261;28;20144;-78
2021/04/16 08:34:06;;;;;;;6.53;3.40;;;7.60;91.10;;;;;;5035203;28;20500;-78
2021/04/16 08:36:39;;;;;;;4.82;2.88;;;7.70;90.90;;;;;;5035094;28;20029;-78
2021/04/16 08:39:19;;;;;;;5.45;3.17;;;7.80;90.30;;;;;;5035136;28;20108;-78
2021/04/16 08:41:50;;;;;;;;;;;8.00;90.00;;;;;;5036536;28;20039;-79
2021/04/16 08:44:17;;;;;;;4.95;2.05;;;8.00;90.00;;;;;;5034509;28;19924;-77
2021/04/16 08:46:48;;;;;;;4.90;2.80;;;8.00;90.00;;;;;;5035713;28;20022;-77
2021/04/16 08:49:19;;;;;;;4.00;2.72;;;8.20;87.90;;;;;;5034908;28;20029;-77
2021/04/16 08:51:49;;;;;;;6.15;2.67;;;8.40;87.00;;;;;;5051191;28;20029;-77
2021/04/16 08:54:27;;;;;;;5.85;2.63;;;8.50;86.50;;;;;;5051308;28;20076;-77
2021/04/16 08:57:11;;;;;;;6.13;3.05;;;8.70;86.20;;;;;;5050886;28;20077;-77
2021/04/16 09:00:06;;;;;;;4.70;2.05;;;8.80;86.30;;;;;;5035516;28;20388;-77
2021/04/16 09:02:36;;;;;;;3.33;2.15;;;8.90;86.00;;;;;;5035785;28;20477;-77
2021/04/16 09:05:14;;;;;;;6.20;2.58;;;9.00;84.30;;;;;;5050934;28;20032;-77
2021/04/16 09:07:43;;;;;;;5.68;2.40;;;9.20;80.80;;;;;;5034681;28;20111;-77
2021/04/16 09:10:15;;;;;;;3.93;2.07;;;9.40;78.60;;;;;;5051007;28;20029;-77
2021/04/16 09:12:40;;;;;;;3.65;2.28;;;9.50;78.20;;;;;;5035452;28;20264;-77
2021/04/16 09:15:18;;;;;;;5.80;2.58;;;9.60;77.90;;;;;;5033417;28;20385;-78
2021/04/16 09:18:11;;;;;;;3.75;1.90;;;9.70;76.60;;;;;;5032710;28;20104;-77
2021/04/16 09:20:36;;;;;;;3.03;1.65;;;9.90;76.70;;;;;;5022199;28;20034;-78
2021/04/16 09:23:04;;;;;;;3.22;1.52;;;10.00;76.50;;;;;;5035143;28;20018;-78
2021/04/16 09:25:29;;;;;;;2.35;1.73;;;10.10;76.30;;;;;;5025501;28;20072;-78
2021/04/16 09:28:21;;;;;;;4.72;1.63;;;10.20;75.90;;;;;;5033482;28;20025;-78
2021/04/16 09:30:47;;;;;;;3.75;1.80;;;10.40;75.10;;;;;;5033697;28;20021;-78
2021/04/16 09:33:39;;;;;;;2.30;1.30;;;10.50;74.20;;;;;;5035227;28;20034;-78
2021/04/16 09:36:10;;;;;;;3.38;1.50;;;10.70;73.50;;;;;;5031838;28;20037;-78
2021/04/16 09:38:37;;;;;;;2.97;1.40;;;10.90;75.60;;;;;;5035309;28;20034;-79
2021/04/16 09:41:18;;;;;;;2.67;0.90;;;11.30;76.40;;;;;;5034053;28;20535;-80
2021/04/16 09:43:46;;;;;;;2.10;0.80;;;13.60;74.50;;;;;;5033670;28;20037;-78
2021/04/16 09:46:35;;;;;;;1.85;0.90;;;16.70;66.70;;;;;;5035091;28;20079;-78
2021/04/16 09:49:23;;;;;;;2.05;0.60;;;19.50;52.20;;;;;;5033987;28;20095;-78
2021/04/16 09:51:49;;;;;;;6.03;0.70;;;21.40;47.50;;;;;;5034907;28;20469;-78
2021/04/16 09:54:21;;;;;;;1.27;0.60;;;22.30;36.30;;;;;;5033744;28;20033;-79
2021/04/16 09:57:02;;;;;;;0.93;0.60;;;23.50;36.70;;;;;;5034549;28;20033;-79
2021/04/16 09:59:28;;;;;;;2.35;0.90;;;24.60;34.60;;;;;;5033611;28;20112;-78
2021/04/16 10:02:17;;;;;;;0.80;0.57;;;24.80;32.40;;;;;;5032808;28;20018;-78
2021/04/16 10:04:57;;;;;;;1.17;0.60;;;25.30;32.90;;;;;;5033462;28;20025;-78
2021/04/16 10:07:39;;;;;;;1.95;0.95;;;26.10;29.90;;;;;;5034651;28;20457;-80
2021/04/16 10:10:19;;;;;;;1.85;0.70;;;26.80;28.90;;;;;;5034628;28;20025;-80
2021/04/16 10:12:45;;;;;;;1.98;0.90;;;26.90;28.80;;;;;;5032541;28;20025;-78
2021/04/16 10:15:16;;;;;;;2.30;0.77;;;27.00;28.20;;;;;;5031620;28;20099;-78
2021/04/16 10:17:57;;;;;;;1.20;0.75;;;27.50;27.30;;;;;;5013586;28;20029;-79
2021/04/16 10:20:24;;;;;;;2.40;0.80;;;27.60;28.10;;;;;;5013366;28;20398;-81
2021/04/16 10:23:03;;;;;;;3.45;1.02;;;28.00;28.90;;;;;;5013247;28;20432;-79
2021/04/16 10:27:01;;;;;;;1.45;0.70;;;28.50;28.50;;;;;;5013488;28;20022;-80
2021/04/16 10:38:14;;;;;;;1.20;0.60;;;29.80;27.50;;;;;;5014592;28;20049;-80
2021/04/16 11:00:24;;;;;;;1.80;0.88;;;31.10;26.70;;;;;;5034031;28;20036;-81
2021/04/16 11:30:49;;;;;;;2.67;0.90;;;34.00;23.90;;;;;;5033231;28;20500;-79
2021/04/16 12:39:05;;;;;;;0.95;0.70;;;33.20;24.60;;;;;;5035703;28;20103;-79
2021/04/16 12:41:44;;;;;;;1.70;0.70;;;33.50;24.20;;;;;;5035389;28;20101;-79
2021/04/16 12:44:23;;;;;;;1.23;0.60;;;33.50;23.50;;;;;;5033618;28;20439;-79
2021/04/16 12:46:49;;;;;;;1.30;0.70;;;33.80;24.50;;;;;;5022210;28;20017;-79
2021/04/16 12:49:15;;;;;;;2.10;0.73;;;33.60;24.80;;;;;;5035322;28;20397;-79
2021/04/16 12:51:40;;;;;;;1.35;0.60;;;33.70;25.40;;;;;;5034149;28;20025;-79
2021/04/16 12:54:05;;;;;;;1.38;0.80;;;33.70;25.10;;;;;;5034080;28;20021;-79
2021/04/16 12:56:39;;;;;;;1.40;0.82;;;34.30;24.30;;;;;;5033644;28;20021;-79
2021/04/16 12:59:13;;;;;;;0.93;0.60;;;35.00;23.40;;;;;;5027122;28;20474;-79
2021/04/16 13:01:39;;;;;;;1.88;0.60;;;34.00;22.80;;;;;;5040351;28;20385;-79
2021/04/16 13:04:05;;;;;;;2.15;0.68;;;33.40;23.60;;;;;;5035621;28;20488;-79
2021/04/16 13:06:40;;;;;;;0.77;0.60;;;32.80;24.20;;;;;;5034131;28;20037;-79
2021/04/16 13:09:07;;;;;;;2.22;0.80;;;33.00;24.90;;;;;;5027236;28;20021;-79
2021/04/16 13:11:32;;;;;;;1.23;1.00;;;33.10;24.60;;;;;;5033851;28;20103;-79
2021/04/16 13:13:58;;;;;;;1.48;0.80;;;33.50;22.30;;;;;;5033966;28;20412;-79
2021/04/16 13:16:24;;;;;;;1.15;0.80;;;33.50;22.60;;;;;;5031188;28;20021;-79
2021/04/16 13:18:54;;;;;;;0.90;0.63;;;33.20;23.70;;;;;;5034058;28;20029;-79
2021/04/16 13:21:38;;;;;;;1.50;1.00;;;32.80;24.50;;;;;;5031531;28;20021;-79
2021/04/16 13:24:05;;;;;;;2.22;0.70;;;33.30;22.00;;;;;;5033841;28;20351;-79
2021/04/16 13:26:31;;;;;;;1.30;0.80;;;33.00;22.00;;;;;;5033702;28;20025;-79
2021/04/16 13:28:57;;;;;;;0.90;0.70;;;32.90;21.80;;;;;;5034988;28;20032;-79
2021/04/16 13:31:25;;;;;;;1.25;0.70;;;32.80;21.70;;;;;;5035020;28;20072;-79
2021/04/16 13:33:52;;;;;;;2.22;0.90;;;32.50;23.00;;;;;;5035047;28;20067;-79
2021/04/16 13:36:19;;;;;;;1.27;0.70;;;32.40;22.00;;;;;;5033573;28;20068;-78
2021/04/16 13:38:46;;;;;;;2.15;0.60;;;32.60;22.40;;;;;;5025465;28;20029;-79
2021/04/16 13:41:12;;;;;;;1.67;0.85;;;32.70;22.40;;;;;;5033484;28;20504;-79
2021/04/16 13:43:39;;;;;;;1.17;0.70;;;32.60;22.30;;;;;;5039098;28;20026;-79
2021/04/16 13:46:07;;;;;;;0.80;0.70;;;32.10;22.10;;;;;;5034764;28;20022;-79
2021/04/16 13:48:33;;;;;;;1.45;0.80;;;32.00;22.30;;;;;;5033619;28;20040;-78
2021/04/16 13:50:59;;;;;;;1.08;0.70;;;31.30;22.00;;;;;;5032030;28;20017;-78
2021/04/16 13:53:25;;;;;;;2.08;0.80;;;30.80;22.80;;;;;;5034619;28;20029;-78
2021/04/16 13:55:51;;;;;;;1.88;1.00;;;30.90;23.60;;;;;;5027898;28;20047;-78
2021/04/16 13:58:16;;;;;;;2.50;0.73;;;30.30;22.50;;;;;;5034215;28;20017;-78
2021/04/16 14:00:46;;;;;;;0.75;0.60;;;30.10;22.70;;;;;;5033231;28;20022;-78
2021/04/16 14:03:34;;;;;;;3.13;1.10;;;29.70;23.20;;;;;;5024994;28;20044;-78
2021/04/16 14:06:15;;;;;;;3.50;1.02;;;29.80;23.10;;;;;;5031923;28;20120;-78
2021/04/16 14:08:47;;;;;;;2.97;1.10;;;29.70;22.50;;;;;;5029604;28;20059;-78
2021/04/16 14:11:12;;;;;;;1.58;0.77;;;29.40;22.90;;;;;;5047146;28;20017;-78
2021/04/16 14:13:38;;;;;;;1.38;0.60;;;29.00;23.80;;;;;;5033414;28;20029;-78
2021/04/16 14:16:07;;;;;;;1.80;0.70;;;28.70;24.60;;;;;;5033582;28;20033;-78
2021/04/16 14:18:39;;;;;;;0.90;0.70;;;28.70;25.10;;;;;;5047954;28;20112;-78
2021/04/16 14:21:10;;;;;;;1.08;0.60;;;29.00;23.90;;;;;;5029005;28;20045;-78
2021/04/16 14:23:35;;;;;;;1.02;0.70;;;28.50;24.90;;;;;;5033483;28;20014;-78
2021/04/16 14:26:03;;;;;;;0.80;0.60;;;28.20;25.70;;;;;;5029535;28;20022;-78
2021/04/16 14:28:28;;;;;;;2.38;0.80;;;27.60;26.50;;;;;;5033234;28;20546;-78
2021/04/16 14:30:57;;;;;;;1.67;0.77;;;27.20;26.90;;;;;;5033237;28;20053;-78
2021/04/16 14:33:33;;;;;;;;;;;26.70;26.30;;;;;;5033900;28;20017;-78
2021/04/16 14:35:59;;;;;;;0.85;0.60;;;26.50;25.70;;;;;;5033240;28;19905;-78
2021/04/16 14:38:26;;;;;;;1.40;0.70;;;26.20;26.50;;;;;;5048298;28;20053;-78
2021/04/16 14:40:52;;;;;;;2.55;1.13;;;25.80;26.90;;;;;;5048386;28;20535;-78
2021/04/16 14:43:19;;;;;;;3.15;0.93;;;25.30;26.60;;;;;;5031571;28;20021;-78
2021/04/16 14:45:48;;;;;;;1.55;0.90;;;25.00;26.60;;;;;;5046365;28;20052;-78
2021/04/16 14:48:15;;;;;;;0.60;0.60;;;24.90;26.50;;;;;;5031635;28;20029;-78
2021/04/16 14:50:41;;;;;;;1.48;0.80;;;24.50;27.60;;;;;;5033003;28;20112;-78
2021/04/16 14:53:15;;;;;;;1.65;0.73;;;24.10;27.80;;;;;;5046911;28;20017;-78
2021/04/16 14:55:40;;;;;;;1.15;0.60;;;24.30;27.60;;;;;;5047972;28;20025;-77
2021/04/16 14:58:08;;;;;;;1.40;1.10;;;24.20;28.20;;;;;;5047140;28;20018;-78
2021/04/16 15:00:35;;;;;;;1.60;0.98;;;23.90;28.40;;;;;;5032731;28;20041;-78
2021/04/16 15:03:03;;;;;;;1.02;0.77;;;23.50;28.70;;;;;;5028409;28;20056;-77
2021/04/16 15:05:29;;;;;;;1.60;0.70;;;22.90;28.50;;;;;;5032853;28;20025;-78
2021/04/16 15:08:01;;;;;;;1.00;0.60;;;22.70;29.20;;;;;;5046848;28;20264;-77
2021/04/16 15:10:34;;;;;;;3.65;1.05;;;23.10;28.80;;;;;;5032465;28;20025;-77
2021/04/16 15:13:00;;;;;;;1.45;0.70;;;23.10;28.30;;;;;;5031539;28;20549;-78